createdAt,value
2019-01-16T00:00:12.408Z,26.00
2019-01-16T00:03:07.839Z,33.53
2019-01-16T00:06:14.234Z,33.38
2019-01-16T00:09:06.064Z,31.17
2019-01-16T00:12:16.608Z,35.92
2019-01-16T00:15:06.783Z,25.35
2019-01-16T00:17:53.693Z,30.52
2019-01-16T00:23:58.049Z,27.35
2019-01-16T00:27:34.445Z,26.10
2019-01-16T00:31:03.831Z,26.33
2019-01-16T00:41:20.851Z,21.52
2019-01-16T00:44:29.086Z,24.00
2019-01-16T01:13:45.811Z,18.80
2019-01-16T01:28:22.216Z,19.73
2019-01-16T01:57:11.767Z,19.62
2019-01-16T02:56:30.029Z,28.73
2019-01-16T03:07:45.582Z,26.12
2019-01-16T03:25:56.285Z,32.58
2019-01-16T03:36:27.665Z,27.60
2019-01-16T04:26:35.651Z,31.00
2019-01-16T04:29:36.657Z,31.70
2019-01-16T04:32:22.959Z,36.50
2019-01-16T04:35:03.026Z,29.35
2019-01-16T04:37:51.070Z,32.10
2019-01-16T04:40:54.055Z,27.85
2019-01-16T04:43:37.633Z,23.35
2019-01-16T04:46:24.515Z,26.87
2019-01-16T04:49:13.892Z,26.68
2019-01-16T04:52:09.648Z,23.47
2019-01-16T04:54:56.002Z,25.72
2019-01-16T04:57:47.676Z,28.45
2019-01-16T05:00:43.300Z,26.45
2019-01-16T05:03:25.224Z,27.17
2019-01-16T05:06:13.180Z,31.97
2019-01-16T05:08:59.574Z,22.98
2019-01-16T05:11:49.285Z,27.77
2019-01-16T05:14:26.292Z,29.55
2019-01-16T05:17:29.623Z,30.12
2019-01-16T05:20:17.672Z,27.62
2019-01-16T05:23:03.806Z,33.02
2019-01-16T05:25:53.095Z,32.45
2019-01-16T05:28:40.177Z,29.52
2019-01-16T05:31:29.002Z,37.40
2019-01-16T05:34:20.055Z,30.60
2019-01-16T05:37:07.098Z,27.73
2019-01-16T05:39:53.184Z,34.13
2019-01-16T05:42:50.453Z,33.90
2019-01-16T05:45:37.707Z,34.65
2019-01-16T05:48:37.094Z,30.35
2019-01-16T05:51:28.100Z,36.15
2019-01-16T05:54:36.109Z,35.90
2019-01-16T05:57:27.267Z,29.18
2019-01-16T06:00:27.029Z,30.00
2019-01-16T06:03:09.554Z,28.83
2019-01-16T06:06:09.001Z,32.63
2019-01-16T06:09:06.574Z,38.78
2019-01-16T06:12:06.527Z,36.63
2019-01-16T06:14:53.326Z,28.80
2019-01-16T06:17:31.559Z,36.68
2019-01-16T06:20:14.016Z,36.20
2019-01-16T06:23:14.762Z,35.10
2019-01-16T06:25:50.699Z,30.72
2019-01-16T06:28:37.482Z,32.03
2019-01-16T06:31:28.568Z,35.38
2019-01-16T06:34:26.658Z,32.23
2019-01-16T06:37:02.064Z,35.68
2019-01-16T06:39:53.149Z,36.60
2019-01-16T06:42:40.384Z,40.65
2019-01-16T06:45:21.786Z,36.70
2019-01-16T06:48:22.156Z,36.30
2019-01-16T06:51:05.408Z,42.35
2019-01-16T06:53:50.101Z,39.60
2019-01-16T06:56:43.700Z,42.38
2019-01-16T06:59:41.360Z,50.10
2019-01-16T07:02:47.686Z,43.33
2019-01-16T07:06:26.391Z,43.08
2019-01-16T07:10:05.268Z,49.45
2019-01-16T07:16:34.791Z,50.78
2019-01-16T07:19:15.773Z,43.95
2019-01-16T07:22:12.638Z,43.30
2019-01-16T07:24:59.227Z,47.48
2019-01-16T07:27:46.112Z,45.12
2019-01-16T07:30:52.176Z,44.63
2019-01-16T07:33:47.340Z,49.53
2019-01-16T07:36:36.280Z,43.28
2019-01-16T07:39:36.751Z,46.18
2019-01-16T07:59:40.023Z,38.10
2019-01-16T08:06:47.246Z,40.00
2019-01-16T08:09:55.334Z,38.25
2019-01-16T08:17:28.288Z,35.55
2019-01-16T08:20:44.400Z,32.73
2019-01-16T08:24:05.380Z,31.48
2019-01-16T08:27:06.319Z,30.12
2019-01-16T08:30:11.660Z,30.62
2019-01-16T08:33:22.841Z,28.47
2019-01-16T08:36:47.826Z,27.42
2019-01-16T08:39:55.519Z,30.75
2019-01-16T08:43:00.190Z,24.18
2019-01-16T08:45:56.820Z,26.57
2019-01-16T08:48:58.053Z,27.62
2019-01-16T08:51:37.451Z,28.12
2019-01-16T08:54:38.641Z,24.30
2019-01-16T08:57:54.771Z,27.45
2019-01-16T09:00:56.332Z,21.87
2019-01-16T09:03:57.358Z,23.05
2019-01-16T09:07:21.338Z,19.98
2019-01-16T09:10:52.577Z,21.68
2019-01-16T09:17:11.995Z,24.67
2019-01-16T09:20:42.751Z,22.27
2019-01-16T09:30:08.309Z,23.15
2019-01-16T09:33:04.061Z,19.37
2019-01-16T09:35:58.830Z,20.35
2019-01-16T09:38:53.177Z,20.55
2019-01-16T09:41:39.110Z,20.10
2019-01-16T09:44:23.951Z,18.87
2019-01-16T09:47:04.402Z,24.20
2019-01-16T09:49:55.679Z,16.55
2019-01-16T09:52:42.317Z,18.07
2019-01-16T09:55:36.463Z,19.90
2019-01-16T09:58:25.994Z,17.37
2019-01-16T10:01:23.068Z,17.25
2019-01-16T10:04:23.582Z,18.23
2019-01-16T10:07:17.785Z,18.20
2019-01-16T10:10:06.156Z,19.45
2019-01-16T10:13:03.110Z,20.72
2019-01-16T10:15:53.967Z,17.17
2019-01-16T10:18:52.081Z,19.00
2019-01-16T10:21:43.340Z,17.05
2019-01-16T10:24:37.491Z,16.20
2019-01-16T10:27:25.504Z,19.15
2019-01-16T10:30:06.787Z,22.07
2019-01-16T10:33:03.828Z,22.20
2019-01-16T10:35:56.622Z,15.88
2019-01-16T10:38:43.003Z,18.23
2019-01-16T10:41:29.496Z,22.37
2019-01-16T10:44:16.255Z,19.20
2019-01-16T10:47:07.569Z,19.45
2019-01-16T10:49:56.109Z,20.17
2019-01-16T10:52:46.532Z,19.30
2019-01-16T10:55:28.161Z,19.27
2019-01-16T10:58:30.952Z,22.00
2019-01-16T11:01:11.934Z,22.50
2019-01-16T11:04:00.984Z,28.73
2019-01-16T11:06:47.410Z,25.65
2019-01-16T11:09:29.397Z,29.85
2019-01-16T11:12:13.044Z,27.15
2019-01-16T11:15:00.138Z,27.62
2019-01-16T11:18:06.504Z,25.82
2019-01-16T11:21:11.182Z,31.15
2019-01-16T11:24:02.852Z,33.88
2019-01-16T11:26:49.340Z,30.52
2019-01-16T11:29:55.428Z,29.37
2019-01-16T11:33:01.488Z,28.05
2019-01-16T11:35:39.991Z,25.48
2019-01-16T11:38:26.448Z,30.82
2019-01-16T11:41:02.967Z,32.03
2019-01-16T11:43:41.166Z,32.95
2019-01-16T11:46:25.507Z,28.75
2019-01-16T11:49:09.276Z,30.32
2019-01-16T11:52:00.015Z,33.65
2019-01-16T11:54:53.971Z,29.40
2019-01-16T11:57:44.671Z,32.35
2019-01-16T12:00:28.129Z,28.73
2019-01-16T12:03:05.051Z,29.50
2019-01-16T12:05:55.950Z,27.52
2019-01-16T12:08:44.599Z,26.65
2019-01-16T12:11:31.068Z,30.52
2019-01-16T12:14:13.795Z,27.75
2019-01-16T12:17:00.640Z,27.32
2019-01-16T12:19:48.524Z,28.52
2019-01-16T12:22:31.864Z,25.88
2019-01-16T12:25:18.664Z,27.77
2019-01-16T12:28:12.549Z,28.40
2019-01-16T12:30:59.904Z,31.20
2019-01-16T12:33:40.201Z,24.72
2019-01-16T12:36:22.598Z,24.90
2019-01-16T12:39:28.865Z,27.10
2019-01-16T12:42:38.685Z,23.90
2019-01-16T12:45:39.262Z,26.77
2019-01-16T12:48:45.589Z,25.62
2019-01-16T12:51:51.939Z,28.90
2019-01-16T12:54:38.591Z,28.35
2019-01-16T12:57:18.912Z,23.20
2019-01-16T13:00:10.969Z,26.82
2019-01-16T13:02:54.241Z,25.77
2019-01-16T13:05:59.231Z,26.55
2019-01-16T13:08:41.288Z,27.32
2019-01-16T13:11:32.878Z,27.00
2019-01-16T13:14:21.363Z,26.55
2019-01-16T13:17:18.400Z,29.23
2019-01-16T13:20:12.051Z,27.37
2019-01-16T13:22:54.494Z,23.73
2019-01-16T13:25:42.559Z,25.23
2019-01-16T13:28:30.941Z,28.70
2019-01-16T13:31:25.043Z,28.40
2019-01-16T13:34:01.155Z,24.47
2019-01-16T13:37:01.110Z,26.42
2019-01-16T13:39:49.125Z,22.32
2019-01-16T13:42:40.047Z,21.50
2019-01-16T13:45:40.539Z,22.42
2019-01-16T13:48:32.543Z,23.00
2019-01-16T13:51:18.593Z,24.98
2019-01-16T13:54:02.055Z,19.20
2019-01-16T13:56:51.415Z,21.80
2019-01-16T13:59:39.363Z,22.77
2019-01-16T14:02:42.542Z,18.10
2019-01-16T14:05:42.484Z,16.70
2019-01-16T14:08:48.406Z,16.05
2019-01-16T14:11:35.639Z,17.85
2019-01-16T14:14:28.988Z,16.37
2019-01-16T14:17:17.039Z,16.87
2019-01-16T14:20:08.183Z,16.48
2019-01-16T14:22:56.159Z,16.35
2019-01-16T14:25:46.982Z,15.83
2019-01-16T14:28:33.757Z,16.82
2019-01-16T14:31:14.112Z,14.60
2019-01-16T14:34:08.261Z,11.33
2019-01-16T14:36:54.764Z,13.58
2019-01-16T14:39:41.310Z,16.42
2019-01-16T14:42:38.365Z,12.93
2019-01-16T14:45:21.954Z,13.28
2019-01-16T14:48:15.673Z,13.98
2019-01-16T14:51:00.083Z,13.35
2019-01-16T14:53:46.646Z,14.68
2019-01-16T14:56:40.714Z,12.45
2019-01-16T14:59:33.324Z,13.88
2019-01-16T15:02:20.727Z,18.57
2019-01-16T15:05:00.328Z,14.65
2019-01-16T15:07:54.122Z,15.00
2019-01-16T15:10:57.023Z,13.53
2019-01-16T15:13:45.031Z,15.95
2019-01-16T15:16:32.903Z,14.50
2019-01-16T15:19:36.622Z,17.20
2019-01-16T15:22:24.377Z,14.87
2019-01-16T15:25:10.214Z,16.95
2019-01-16T15:27:49.307Z,13.55
2019-01-16T15:30:43.623Z,18.05
2019-01-16T15:33:30.461Z,12.25
2019-01-16T15:36:21.290Z,17.35
2019-01-16T15:39:21.572Z,14.20
2019-01-16T15:42:08.073Z,15.13
2019-01-16T15:45:07.927Z,12.68
2019-01-16T15:47:55.027Z,16.37
2019-01-16T15:50:43.991Z,12.47
2019-01-16T15:53:28.634Z,12.23
2019-01-16T15:56:17.178Z,13.55
2019-01-16T15:58:53.172Z,14.05
2019-01-16T16:01:45.190Z,13.35
2019-01-16T16:04:26.348Z,16.93
2019-01-16T16:07:07.572Z,13.53
2019-01-16T16:09:54.014Z,15.48
2019-01-16T16:12:53.988Z,13.20
2019-01-16T16:15:40.460Z,13.30
2019-01-16T16:18:31.381Z,13.68
2019-01-16T16:21:17.900Z,13.78
2019-01-16T16:23:57.635Z,16.85
2019-01-16T16:26:42.794Z,15.75
2019-01-16T16:29:28.087Z,24.50
2019-01-16T16:32:11.697Z,20.55
2019-01-16T16:34:58.585Z,19.40
2019-01-16T16:38:02.361Z,17.80
2019-01-16T16:40:49.769Z,24.52
2019-01-16T16:43:37.201Z,21.85
2019-01-16T16:46:46.027Z,21.90
2019-01-16T16:49:24.103Z,21.62
2019-01-16T16:52:26.658Z,22.22
2019-01-16T16:55:42.482Z,22.80
2019-01-16T16:59:25.345Z,30.20
2019-01-16T17:13:49.020Z,27.13
2019-01-16T17:17:24.020Z,33.45
2019-01-16T17:20:24.959Z,34.75
2019-01-16T17:24:09.875Z,29.95
2019-01-16T17:30:34.827Z,27.35
2019-01-16T17:43:00.811Z,29.67
2019-01-16T17:46:04.096Z,29.95
2019-01-16T17:49:07.486Z,27.13
2019-01-16T17:51:55.896Z,26.73
2019-01-16T17:54:53.740Z,24.32
2019-01-16T17:59:34.333Z,23.18
2019-01-16T18:00:54.379Z,25.95
2019-01-16T18:03:39.618Z,23.02
2019-01-16T18:06:37.184Z,24.43
2019-01-16T18:10:20.629Z,23.15
2019-01-16T18:13:11.024Z,21.95
2019-01-16T18:15:54.964Z,22.50
2019-01-16T18:30:55.908Z,31.05
2019-01-16T18:33:47.012Z,24.65
2019-01-16T18:36:58.470Z,31.17
2019-01-16T18:39:42.533Z,27.10
2019-01-16T18:42:45.204Z,29.55
2019-01-16T18:46:02.233Z,26.33
2019-01-16T18:48:56.490Z,27.42
2019-01-16T18:52:07.069Z,24.60
2019-01-16T18:54:58.051Z,23.90
2019-01-16T18:58:01.241Z,26.10
2019-01-16T19:01:00.805Z,29.30
2019-01-16T19:04:05.520Z,25.20
2019-01-16T19:07:08.442Z,22.30
2019-01-16T19:13:27.652Z,24.57
2019-01-16T19:16:15.402Z,23.20
2019-01-16T19:18:59.277Z,21.02
2019-01-16T19:21:57.069Z,19.23
2019-01-16T19:25:02.157Z,20.23
2019-01-16T19:27:50.837Z,18.12
2019-01-16T19:30:50.801Z,22.30
2019-01-16T19:33:55.775Z,21.57
2019-01-16T19:37:00.548Z,19.52
2019-01-16T19:40:40.201Z,20.70
2019-01-16T19:44:08.875Z,24.75
2019-01-16T19:47:09.334Z,27.80
2019-01-16T19:54:23.898Z,28.45
2019-01-16T20:12:25.943Z,27.80
2019-01-16T20:14:00.472Z,30.40
2019-01-16T20:15:50.388Z,29.32
2019-01-16T20:22:32.972Z,37.98
2019-01-16T20:26:05.605Z,29.35
2019-01-16T20:31:34.192Z,30.52
2019-01-16T20:33:21.260Z,31.85
2019-01-16T20:44:59.699Z,27.15
2019-01-16T20:48:23.446Z,26.55
2019-01-16T20:54:26.902Z,29.42
2019-01-16T20:57:31.379Z,29.45
2019-01-16T21:00:57.285Z,28.98
2019-01-16T21:14:29.073Z,26.97
2019-01-16T21:17:19.589Z,31.48
2019-01-16T21:20:06.956Z,27.90
2019-01-16T21:23:35.243Z,33.10
2019-01-16T21:26:26.885Z,29.30
2019-01-16T21:29:22.687Z,35.28
2019-01-16T21:32:20.233Z,28.05
2019-01-16T21:35:32.566Z,29.52
2019-01-16T22:30:02.810Z,37.05
2019-01-16T22:37:03.724Z,30.23
2019-01-16T22:44:42.447Z,27.25
2019-01-16T22:58:57.041Z,30.00
2019-01-16T23:13:39.594Z,39.30
2019-01-16T23:16:57.599Z,37.85
